Airfield :
LOGIN :

Register | Disclaimer

   EN    FR    IT 

 










Legend :    VFR   Marginal VFR   IFR   Intensive IFR   Very Intensive IFR
Visi :
Ceiling :
>= 8 km
>= 3000ft
5 to 8 km
1000 to 3000 ft
1500m to 5 km
500 to 1000 ft
800 to 1500m
200 to 500 ft
< 800m
< 200 ft
Symbols :   Thunderstorms  Fog  Heavy snow  Heavy precipitations  Wind > 20 kt
SIGMETs :     Misc.  Thunderstorms  Icing  Turbulence  Mountain Waves  Volcanic Ashes






- Airport Elevation : 256 ft
- IATA code : CFR


LFRK - Caen

CURRENT METAR :
  • 230500Z AUTO 17003KT 7000 NSC 10/09 Q1010

EXPIRED METARs :
  • 230430Z AUTO 22004KT CAVOK 11/10 Q1010
  • 230400Z AUTO 22005KT CAVOK 11/10 Q1010
  • 230330Z AUTO 19005KT 9000 NSC 12/11 Q1010
  • 230300Z AUTO 11004KT 7000 NSC 11/11 Q1010
  • 230230Z AUTO 19003KT 8000 FEW026 BKN060 BKN098 11/10 Q1011

Expired Forecast.
Met : +33 2 31 26 68 11



MET'MAP, your aeronautical weather chart ! - Copyright ORBIFLY December 2007 - Disclaimer

ORBIFLY MET'MAP TEAM :

Programming & Development : Alexandra Zaïnal
Concept & original design : Baudouin d'Aumeries
Assistance for programming : Marc-Olivier Méhu
Technical & hardware support : Manuel Goepfert

Contact : metmap@orbifly.com




SOURCES & CREDITS :

   NOAA